Time;durP1;ratioP1;P1;durP2;ratioP2;P2;SDS_P1;SDS_P2;PMS_P1;PMS_P2;Temp;Humidity;BMP_temperature;BMP_pressure;BME280_temperature;BME280_humidity;BME280_pressure;Samples;Min_cycle;Max_cycle;Signal;HPM_P1;HPM_P2
2022/08/04 00:00:15;;;;;;;1.52;0.70;;;21.10;99.90;;;;;;6226040;22;20020;-91
2022/08/04 00:03:01;;;;;;;0.60;0.50;;;21.00;99.90;;;;;;6231571;22;20028;-90
2022/08/04 00:05:43;;;;;;;0.80;0.30;;;21.00;99.90;;;;;;6274129;22;20297;-90
2022/08/04 00:08:13;;;;;;;0.77;0.53;;;21.00;99.90;;;;;;6274729;22;20016;-91
2022/08/04 00:10:40;;;;;;;0.65;0.50;;;20.90;99.90;;;;;;6250240;22;20374;-92
2022/08/04 00:13:07;;;;;;;0.40;0.40;;;20.90;99.90;;;;;;6224789;22;20012;-92
2022/08/04 00:15:34;;;;;;;0.50;0.40;;;20.90;99.90;;;;;;6224326;22;20023;-91
2022/08/04 00:18:07;;;;;;;0.38;0.38;;;20.90;99.90;;;;;;6223756;22;20174;-91
2022/08/04 00:20:37;;;;;;;1.13;0.70;;;20.90;99.90;;;;;;6224189;22;20019;-91
2022/08/04 00:23:05;;;;;;;0.60;0.60;;;20.90;99.90;;;;;;6225692;22;20091;-92
2022/08/04 00:25:32;;;;;;;0.32;0.32;;;21.00;99.90;;;;;;6230526;22;20027;-90
2022/08/04 00:28:00;;;;;;;0.50;0.40;;;21.00;99.90;;;;;;6229546;22;20165;-90
2022/08/04 00:41:21;;;;;;;0.68;0.50;;;21.00;99.90;;;;;;6235700;22;20027;-82
2022/08/04 00:43:54;;;;;;;0.40;0.35;;;21.00;99.90;;;;;;6238648;22;20454;-80
2022/08/04 00:46:49;;;;;;;0.50;0.38;;;21.00;99.90;;;;;;6265094;22;20094;-82
2022/08/04 00:49:43;;;;;;;1.40;0.63;;;21.10;99.90;;;;;;6215166;22;20473;-82
2022/08/04 00:52:28;;;;;;;0.45;0.40;;;21.10;99.90;;;;;;6265093;22;20303;-82
2022/08/04 00:55:03;;;;;;;0.30;0.28;;;21.00;99.90;;;;;;6237385;22;20034;-82
2022/08/04 00:58:13;;;;;;;0.73;0.50;;;21.00;99.90;;;;;;6238624;22;20500;-80
2022/08/04 01:01:01;;;;;;;0.52;0.40;;;21.00;99.90;;;;;;6264178;22;20347;-81
2022/08/04 01:03:55;;;;;;;0.98;0.55;;;21.00;99.90;;;;;;6237296;22;20023;-82
2022/08/04 01:06:52;;;;;;;0.85;0.60;;;21.00;99.90;;;;;;6212983;22;20024;-81
2022/08/04 01:09:25;;;;;;;0.50;0.40;;;20.90;99.90;;;;;;6218450;22;20016;-82
2022/08/04 01:11:54;;;;;;;1.00;0.60;;;20.90;99.90;;;;;;6213324;22;20020;-80
2022/08/04 01:14:57;;;;;;;1.10;0.80;;;20.90;99.90;;;;;;6238377;22;20289;-82
2022/08/04 01:17:27;;;;;;;0.82;0.45;;;20.80;99.90;;;;;;6264613;22;20063;-82
2022/08/04 01:20:01;;;;;;;1.08;0.63;;;20.80;99.90;;;;;;6238868;22;20023;-82
2022/08/04 01:22:30;;;;;;;2.20;0.57;;;20.70;99.90;;;;;;6188710;22;20034;-82
2022/08/04 01:25:17;;;;;;;0.40;0.40;;;20.70;99.90;;;;;;6264607;22;20062;-82
2022/08/04 01:28:11;;;;;;;0.55;0.45;;;20.70;99.90;;;;;;6192918;22;20505;-82
2022/08/04 01:41:27;;;;;;;0.75;0.40;;;20.50;99.90;;;;;;6215577;22;20046;-88
2022/08/04 01:43:58;;;;;;;0.85;0.30;;;20.50;99.90;;;;;;6180244;23;20024;-88
2022/08/04 01:46:26;;;;;;;0.57;0.40;;;20.40;99.90;;;;;;6175495;23;20284;-92
2022/08/04 01:48:53;;;;;;;1.10;0.65;;;20.40;99.90;;;;;;6167120;23;20078;-93
2022/08/04 01:51:20;;;;;;;0.65;0.50;;;20.40;99.90;;;;;;6170141;23;20017;-90
2022/08/04 01:53:47;;;;;;;0.68;0.40;;;20.40;99.90;;;;;;6170014;23;20026;-90
2022/08/04 01:56:15;;;;;;;0.68;0.50;;;20.40;99.90;;;;;;6183670;23;20088;-89
2022/08/04 01:58:42;;;;;;;0.43;0.43;;;20.40;99.90;;;;;;6206989;23;20026;-93
2022/08/04 02:01:12;;;;;;;0.93;0.60;;;20.40;99.90;;;;;;6174086;23;20039;-91
2022/08/04 02:03:44;;;;;;;0.70;0.50;;;20.50;99.90;;;;;;6173235;23;20020;-91
2022/08/04 02:07:01;;;;;;;0.50;0.40;;;20.50;99.90;;;;;;6184780;23;20071;-90
2022/08/04 02:09:36;;;;;;;0.32;0.30;;;20.50;99.90;;;;;;6176725;23;20020;-89
2022/08/04 02:12:41;;;;;;;0.47;0.38;;;20.50;99.90;;;;;;6210271;23;20031;-87
2022/08/04 02:15:27;;;;;;;1.38;0.50;;;20.50;99.90;;;;;;6173748;23;20024;-90
2022/08/04 02:18:13;;;;;;;0.40;0.35;;;20.40;99.90;;;;;;6224361;23;20024;-88
2022/08/04 02:20:45;;;;;;;0.20;0.20;;;20.40;99.90;;;;;;6197537;23;20023;-89
2022/08/04 02:23:27;;;;;;;0.70;0.40;;;20.40;99.90;;;;;;6171676;23;20012;-88
2022/08/04 02:26:01;;;;;;;0.60;0.40;;;20.40;99.90;;;;;;6174933;23;20429;-90
2022/08/04 02:28:44;;;;;;;0.60;0.40;;;20.40;99.90;;;;;;6173881;23;20016;-91
2022/08/04 02:31:41;;;;;;;1.38;0.50;;;20.40;99.90;;;;;;6175108;23;20020;-92
2022/08/04 02:34:08;;;;;;;0.90;0.40;;;20.40;99.90;;;;;;6170627;23;20020;-89
2022/08/04 02:36:40;;;;;;;0.63;0.40;;;20.40;99.90;;;;;;6168766;23;20090;-92
2022/08/04 02:39:09;;;;;;;0.65;0.40;;;20.30;99.90;;;;;;6165268;23;20402;-90
2022/08/04 02:41:37;;;;;;;1.08;0.30;;;20.30;99.90;;;;;;6190853;22;20020;-92
2022/08/04 02:44:05;;;;;;;1.50;0.50;;;20.30;99.90;;;;;;6195374;23;20074;-91
2022/08/04 02:46:33;;;;;;;0.65;0.40;;;20.30;99.90;;;;;;6195596;23;20063;-92
2022/08/04 02:49:02;;;;;;;0.47;0.40;;;20.20;99.90;;;;;;6196085;23;20082;-90
2022/08/04 02:51:34;;;;;;;0.68;0.57;;;20.20;99.90;;;;;;6198399;23;20012;-91
2022/08/04 02:54:02;;;;;;;0.93;0.50;;;20.20;99.90;;;;;;6198578;23;20028;-90
2022/08/04 02:56:31;;;;;;;0.47;0.35;;;20.20;99.90;;;;;;6196676;23;20016;-91
2022/08/04 02:59:00;;;;;;;1.00;0.50;;;20.20;99.70;;;;;;6197797;23;20036;-92
2022/08/04 03:01:27;;;;;;;1.35;0.40;;;20.20;99.70;;;;;;6196661;23;20027;-89
2022/08/04 03:04:16;;;;;;;0.60;0.40;;;20.10;99.60;;;;;;6196163;23;20084;-88
2022/08/04 03:07:09;;;;;;;0.40;0.40;;;20.10;99.50;;;;;;6246189;23;20030;-88
2022/08/04 03:09:47;;;;;;;1.38;0.50;;;20.00;99.40;;;;;;6245503;23;20027;-88
2022/08/04 03:12:33;;;;;;;;;;;20.00;99.20;;;;;;6245805;23;20023;-89
2022/08/04 03:15:14;;;;;;;1.67;0.60;;;19.90;99.20;;;;;;6245582;23;19995;-91
2022/08/04 03:18:21;;;;;;;0.70;0.50;;;19.90;99.10;;;;;;6221117;23;20115;-89
2022/08/04 03:21:09;;;;;;;1.30;0.88;;;19.90;99.10;;;;;;6203391;23;20261;-90
2022/08/04 03:23:58;;;;;;;1.00;0.63;;;19.80;99.10;;;;;;6247657;23;20042;-89
2022/08/04 03:27:07;;;;;;;1.98;0.93;;;19.80;99.20;;;;;;6223318;23;20016;-89
2022/08/04 03:29:59;;;;;;;0.77;0.55;;;19.70;99.30;;;;;;6222615;23;20103;-87
2022/08/04 03:32:51;;;;;;;1.13;0.75;;;19.70;99.30;;;;;;6225803;22;20071;-87
2022/08/04 03:35:50;;;;;;;1.05;0.50;;;19.70;99.40;;;;;;6224804;23;20030;-90
2022/08/04 03:38:20;;;;;;;1.48;0.63;;;19.60;99.60;;;;;;6219552;23;20016;-89
2022/08/04 03:41:17;;;;;;;0.70;0.50;;;19.60;99.60;;;;;;6236786;23;20021;-88
2022/08/04 03:44:23;;;;;;;0.73;0.40;;;19.60;99.50;;;;;;6173982;23;20059;-90
2022/08/04 03:46:58;;;;;;;1.85;0.60;;;19.60;99.50;;;;;;6189831;23;20428;-90
2022/08/04 03:49:31;;;;;;;1.77;0.75;;;19.50;99.60;;;;;;6166070;23;20021;-88
2022/08/04 03:55:04;;;;;;;1.75;0.80;;;19.50;99.50;;;;;;6181541;23;20012;-89
2022/08/04 03:57:52;;;;;;;0.82;0.40;;;19.50;99.50;;;;;;6197720;23;20087;-89
2022/08/04 04:00:33;;;;;;;1.33;0.57;;;19.40;99.50;;;;;;6193718;23;20051;-89
2022/08/04 04:03:09;;;;;;;1.02;0.60;;;19.40;99.50;;;;;;6174492;23;20021;-88
2022/08/04 04:05:57;;;;;;;1.05;0.68;;;19.40;99.50;;;;;;6174226;23;20324;-89
2022/08/04 04:08:57;;;;;;;1.38;0.50;;;19.40;99.60;;;;;;6192333;23;20099;-90
2022/08/04 04:11:47;;;;;;;0.80;0.68;;;19.40;99.60;;;;;;6191562;23;20028;-89
2022/08/04 04:14:39;;;;;;;0.85;0.65;;;19.40;99.70;;;;;;6168392;23;20017;-89
2022/08/04 04:17:25;;;;;;;0.82;0.50;;;19.30;99.90;;;;;;6163201;23;20372;-88
2022/08/04 04:20:26;;;;;;;0.60;0.60;;;19.20;99.90;;;;;;6190074;23;20028;-89
2022/08/04 04:23:16;;;;;;;0.80;0.40;;;19.10;99.90;;;;;;6190323;23;20143;-91
2022/08/04 04:26:05;;;;;;;0.30;0.30;;;19.10;99.90;;;;;;6192292;23;20071;-91
2022/08/04 04:28:57;;;;;;;0.95;0.60;;;19.00;99.90;;;;;;6174093;23;20028;-91
2022/08/04 04:31:50;;;;;;;1.00;0.60;;;18.90;99.90;;;;;;6195313;23;20444;-90
2022/08/04 04:34:36;;;;;;;1.30;0.80;;;18.70;99.90;;;;;;6188644;23;20013;-89
2022/08/04 04:37:26;;;;;;;1.70;0.65;;;18.60;99.90;;;;;;6190410;23;20103;-88
2022/08/04 04:40:08;;;;;;;1.20;0.93;;;18.60;99.90;;;;;;6190298;23;20025;-91
2022/08/04 04:43:03;;;;;;;1.05;0.60;;;18.60;99.90;;;;;;6240607;23;20042;-91
2022/08/04 04:45:36;;;;;;;1.23;0.65;;;18.50;99.90;;;;;;6246669;22;20020;-90
2022/08/04 04:48:27;;;;;;;0.75;0.63;;;18.50;99.90;;;;;;6220446;23;20086;-92
2022/08/04 04:51:13;;;;;;;1.08;0.38;;;18.50;99.90;;;;;;6219012;23;20024;-92
2022/08/04 04:53:50;;;;;;;0.60;0.50;;;18.50;99.90;;;;;;6198029;23;20027;-90
2022/08/04 04:56:45;;;;;;;1.23;0.63;;;18.50;99.90;;;;;;6201816;23;20051;-91
2022/08/04 04:59:14;;;;;;;1.85;0.65;;;18.50;99.90;;;;;;6244909;22;20082;-93
2022/08/04 05:01:51;;;;;;;0.38;0.30;;;18.50;99.90;;;;;;6197910;23;20024;-92
2022/08/04 05:04:40;;;;;;;0.40;0.40;;;18.40;99.90;;;;;;6219147;23;20035;-92
2022/08/04 05:07:22;;;;;;;0.73;0.57;;;18.40;99.90;;;;;;6249999;23;20194;-90
2022/08/04 05:09:53;;;;;;;0.75;0.40;;;18.50;99.90;;;;;;6262208;23;20079;-92
2022/08/04 05:12:52;;;;;;;0.50;0.40;;;18.50;99.90;;;;;;6253149;22;20024;-93
2022/08/04 05:15:41;;;;;;;0.95;0.52;;;18.50;99.90;;;;;;6209725;23;20043;-92
2022/08/04 05:18:13;;;;;;;1.67;0.70;;;18.60;99.90;;;;;;6200652;23;20022;-92
2022/08/04 05:20:42;;;;;;;1.35;0.50;;;18.60;99.90;;;;;;6201367;23;20047;-93
2022/08/04 05:23:14;;;;;;;1.15;0.47;;;18.60;99.90;;;;;;6200698;23;20035;-91
2022/08/04 05:25:58;;;;;;;0.80;0.50;;;18.60;99.90;;;;;;6229100;23;20016;-92
2022/08/04 05:28:37;;;;;;;1.00;0.80;;;18.60;99.90;;;;;;6205250;23;20431;-92
2022/08/04 05:31:21;;;;;;;1.15;0.47;;;18.60;99.90;;;;;;6200661;23;20018;-93
2022/08/04 05:34:28;;;;;;;1.10;0.60;;;18.60;99.90;;;;;;6204329;23;20079;-92
2022/08/04 05:37:34;;;;;;;0.90;0.38;;;18.60;99.90;;;;;;6234168;23;20086;-92
2022/08/04 05:40:09;;;;;;;1.80;0.88;;;18.70;99.90;;;;;;6204960;23;20024;-92
2022/08/04 05:42:38;;;;;;;1.27;0.60;;;18.70;99.90;;;;;;6199558;23;20108;-92
2022/08/04 05:45:32;;;;;;;1.48;0.70;;;18.70;99.90;;;;;;6199282;23;20024;-94
2022/08/04 05:48:10;;;;;;;1.25;0.65;;;18.70;99.90;;;;;;6203672;23;20035;-93
2022/08/04 05:50:38;;;;;;;;;;;18.70;99.90;;;;;;6200945;23;20024;-92
2022/08/04 05:53:05;;;;;;;0.98;0.57;;;18.70;99.90;;;;;;6227971;23;19993;-92
2022/08/04 05:55:36;;;;;;;0.30;0.30;;;18.70;99.90;;;;;;6225253;23;20097;-88
2022/08/04 05:58:28;;;;;;;0.30;0.30;;;18.80;99.90;;;;;;6204228;23;20024;-93
2022/08/04 06:00:59;;;;;;;;;;;18.80;99.90;;;;;;6196762;23;20020;-92
2022/08/04 06:03:31;;;;;;;0.38;0.32;;;18.80;99.90;;;;;;6221076;23;19957;-92
2022/08/04 06:06:01;;;;;;;1.73;0.50;;;18.80;99.90;;;;;;6196160;23;20059;-93
2022/08/04 06:08:43;;;;;;;0.85;0.40;;;18.80;99.90;;;;;;6197520;23;20020;-92
2022/08/04 06:11:11;;;;;;;0.75;0.40;;;18.80;99.90;;;;;;6210150;23;20055;-91
2022/08/04 06:13:53;;;;;;;1.05;0.50;;;18.90;99.90;;;;;;6206400;23;20032;-91
2022/08/04 06:16:22;;;;;;;0.82;0.50;;;18.80;99.90;;;;;;6196438;23;20024;-92
2022/08/04 06:19:00;;;;;;;1.67;0.90;;;18.80;99.90;;;;;;6199698;23;20024;-89
2022/08/04 06:21:47;;;;;;;1.58;0.68;;;18.70;99.90;;;;;;6223651;23;20406;-90
2022/08/04 06:24:17;;;;;;;1.52;0.90;;;18.70;99.90;;;;;;6195272;23;20020;-90
2022/08/04 06:26:45;;;;;;;1.45;1.05;;;18.70;99.90;;;;;;6191919;23;20019;-91
2022/08/04 06:29:19;;;;;;;1.17;0.55;;;18.70;99.90;;;;;;6193388;23;20016;-87
2022/08/04 06:31:56;;;;;;;1.85;0.82;;;18.70;99.90;;;;;;6196015;23;20382;-87
2022/08/04 06:34:44;;;;;;;1.83;0.77;;;18.70;99.90;;;;;;6206086;23;20089;-88
2022/08/04 06:37:11;;;;;;;0.90;0.60;;;18.70;99.90;;;;;;6193004;23;20016;-89
2022/08/04 06:39:58;;;;;;;1.27;0.50;;;18.80;99.90;;;;;;6201301;23;20020;-90
2022/08/04 06:42:26;;;;;;;1.55;0.75;;;18.80;99.90;;;;;;6147691;23;20526;-90
2022/08/04 06:44:57;;;;;;;0.85;0.50;;;18.80;99.90;;;;;;6163623;23;20016;-89
2022/08/04 06:47:24;;;;;;;1.75;1.00;;;18.80;99.90;;;;;;6169676;23;20016;-90
2022/08/04 06:49:52;;;;;;;1.75;0.70;;;18.80;99.90;;;;;;6161742;23;20031;-89
2022/08/04 06:52:43;;;;;;;0.60;0.57;;;18.80;99.90;;;;;;6172072;23;20020;-90
2022/08/04 06:55:10;;;;;;;1.25;0.60;;;18.90;99.90;;;;;;6138735;23;20028;-89
2022/08/04 06:57:38;;;;;;;0.88;0.43;;;19.00;99.90;;;;;;6163423;23;20084;-89
2022/08/04 07:00:10;;;;;;;1.23;0.60;;;19.00;99.90;;;;;;6163122;23;20108;-90
2022/08/04 07:02:49;;;;;;;0.93;0.50;;;19.00;99.90;;;;;;6164536;23;20272;-90
2022/08/04 07:05:17;;;;;;;1.45;0.60;;;19.10;99.90;;;;;;6163926;23;20028;-90
2022/08/04 07:07:44;;;;;;;1.10;0.70;;;19.10;99.90;;;;;;6162771;23;20023;-91
2022/08/04 07:10:26;;;;;;;1.98;0.88;;;19.10;99.90;;;;;;6167148;23;20080;-89
2022/08/04 07:12:57;;;;;;;3.25;1.10;;;19.10;99.90;;;;;;6162406;23;20349;-89
2022/08/04 07:15:25;;;;;;;1.55;0.70;;;19.00;99.90;;;;;;6161119;23;20028;-89
2022/08/04 07:17:52;;;;;;;1.38;0.68;;;19.00;99.90;;;;;;6160392;23;20021;-88
2022/08/04 07:20:20;;;;;;;1.75;0.57;;;19.00;99.90;;;;;;6160718;23;20055;-90
2022/08/04 07:23:09;;;;;;;0.80;0.65;;;19.00;99.90;;;;;;6166591;23;20321;-90
2022/08/04 07:25:36;;;;;;;0.85;0.35;;;19.10;99.90;;;;;;6161524;23;20100;-90
2022/08/04 07:28:28;;;;;;;2.88;0.77;;;19.20;99.90;;;;;;6167668;23;20025;-90
2022/08/04 07:30:55;;;;;;;1.05;0.70;;;19.20;99.90;;;;;;6161044;23;20021;-90
2022/08/04 07:33:23;;;;;;;0.47;0.40;;;19.20;99.90;;;;;;6160313;23;20024;-89
2022/08/04 07:35:55;;;;;;;1.00;0.60;;;19.20;99.90;;;;;;6161456;23;20024;-91
2022/08/04 07:38:40;;;;;;;0.98;0.60;;;19.30;99.90;;;;;;6169278;23;20021;-91
2022/08/04 07:41:22;;;;;;;1.08;0.70;;;19.30;99.90;;;;;;6182031;23;20047;-91
2022/08/04 07:44:05;;;;;;;1.10;0.68;;;19.50;99.90;;;;;;6200777;23;20047;-93
2022/08/04 07:46:32;;;;;;;0.57;0.45;;;19.50;99.90;;;;;;6193225;23;20046;-93
2022/08/04 07:48:59;;;;;;;1.50;0.70;;;19.70;99.90;;;;;;6192541;23;20017;-93
2022/08/04 07:51:27;;;;;;;1.80;0.60;;;19.70;99.90;;;;;;6188978;23;20054;-91
2022/08/04 07:53:55;;;;;;;1.67;0.65;;;19.80;99.90;;;;;;6189278;23;20447;-90
2022/08/04 07:56:23;;;;;;;1.83;0.80;;;19.90;99.90;;;;;;6208043;23;20020;-90
2022/08/04 07:58:50;;;;;;;1.08;0.73;;;19.90;99.90;;;;;;6191569;23;20404;-91
2022/08/04 08:01:18;;;;;;;1.50;0.90;;;20.00;99.90;;;;;;6193114;23;20083;-91
2022/08/04 08:03:46;;;;;;;1.38;0.95;;;20.00;99.90;;;;;;6191126;23;20381;-90
2022/08/04 08:06:13;;;;;;;1.90;0.98;;;19.90;99.90;;;;;;6190324;23;20055;-92
2022/08/04 08:09:02;;;;;;;1.70;0.73;;;20.00;99.90;;;;;;6197880;23;20016;-90
2022/08/04 08:11:43;;;;;;;1.15;0.80;;;20.00;99.90;;;;;;6195327;23;20023;-91
2022/08/04 08:14:30;;;;;;;1.52;0.80;;;20.10;99.90;;;;;;6199071;23;20024;-91
2022/08/04 08:16:59;;;;;;;2.13;1.27;;;20.00;99.90;;;;;;6192046;23;20038;-91
2022/08/04 08:19:27;;;;;;;1.90;0.93;;;19.90;99.90;;;;;;6192194;23;20030;-91
2022/08/04 08:21:54;;;;;;;1.45;0.85;;;19.90;99.90;;;;;;6190294;23;20119;-91
2022/08/04 08:24:29;;;;;;;2.33;0.88;;;19.80;99.90;;;;;;6195762;23;20087;-90
2022/08/04 08:27:03;;;;;;;1.00;0.70;;;19.80;99.90;;;;;;6198366;23;20046;-90
2022/08/04 08:29:31;;;;;;;2.67;0.70;;;19.90;99.90;;;;;;6194917;23;20087;-91
2022/08/04 08:32:04;;;;;;;2.17;0.70;;;19.90;99.90;;;;;;6191844;23;20203;-89
2022/08/04 08:34:34;;;;;;;0.85;0.63;;;20.00;99.80;;;;;;6191297;23;20016;-90
2022/08/04 08:37:29;;;;;;;1.48;0.90;;;20.00;99.90;;;;;;6190286;23;20016;-90
2022/08/04 08:40:28;;;;;;;0.77;0.60;;;20.00;99.80;;;;;;6240058;23;20020;-91
2022/08/04 08:43:19;;;;;;;1.17;0.70;;;20.00;99.90;;;;;;6218888;23;20020;-90
2022/08/04 08:46:43;;;;;;;1.00;0.70;;;20.00;99.80;;;;;;6220378;23;20024;-92
2022/08/04 08:49:34;;;;;;;1.17;0.70;;;20.20;99.70;;;;;;6242309;23;20043;-91
2022/08/04 08:52:43;;;;;;;1.75;0.65;;;20.30;99.00;;;;;;6245375;23;20046;-92
2022/08/04 08:55:50;;;;;;;1.73;0.82;;;20.40;98.90;;;;;;6221238;23;20024;-91
2022/08/04 08:58:37;;;;;;;3.42;1.42;;;20.50;98.80;;;;;;6219151;23;20024;-90
2022/08/04 09:01:22;;;;;;;2.47;1.05;;;20.40;98.50;;;;;;6240364;22;20050;-90
2022/08/04 09:03:58;;;;;;;1.70;0.75;;;20.50;98.10;;;;;;6249219;23;20136;-89
2022/08/04 09:06:52;;;;;;;0.70;0.50;;;20.60;98.40;;;;;;6244364;23;20099;-91
2022/08/04 09:09:39;;;;;;;2.08;1.08;;;20.90;97.80;;;;;;6193516;23;20039;-91
2022/08/04 09:12:06;;;;;;;0.60;0.60;;;21.00;97.40;;;;;;6215282;23;20020;-88
2022/08/04 09:14:59;;;;;;;0.45;0.40;;;21.00;97.20;;;;;;6238638;23;20027;-90
2022/08/04 09:17:36;;;;;;;1.05;0.57;;;21.20;97.10;;;;;;6218034;23;20554;-90
2022/08/04 09:20:06;;;;;;;2.42;0.93;;;21.40;96.70;;;;;;6190361;23;20471;-91
2022/08/04 09:22:46;;;;;;;2.47;0.90;;;21.40;96.60;;;;;;6192387;23;20020;-91
2022/08/04 09:25:16;;;;;;;1.02;0.70;;;21.60;96.60;;;;;;6191328;23;20024;-90
2022/08/04 09:27:53;;;;;;;1.58;0.90;;;21.70;95.90;;;;;;6239201;23;20016;-93
2022/08/04 09:30:36;;;;;;;0.95;0.50;;;21.60;95.90;;;;;;6186561;23;20026;-93
2022/08/04 09:33:22;;;;;;;0.47;0.45;;;21.70;95.80;;;;;;6212707;22;20020;-91
2022/08/04 09:36:22;;;;;;;0.68;0.40;;;21.90;95.30;;;;;;6239100;22;20027;-91
2022/08/04 09:39:25;;;;;;;1.88;0.60;;;22.10;95.00;;;;;;6238347;23;20016;-92
2022/08/04 09:42:38;;;;;;;0.85;0.55;;;22.20;94.20;;;;;;6213348;23;20024;-91
2022/08/04 09:45:26;;;;;;;;;;;22.50;94.30;;;;;;6210037;23;20051;-94
2022/08/04 09:48:18;;;;;;;1.13;0.40;;;22.50;93.90;;;;;;6237849;23;20372;-89
2022/08/04 09:50:45;;;;;;;0.80;0.40;;;22.70;93.80;;;;;;6189829;23;20094;-93
2022/08/04 09:53:56;;;;;;;0.60;0.30;;;23.00;93.20;;;;;;6190977;23;20043;-89
2022/08/04 09:56:38;;;;;;;1.10;0.50;;;23.10;93.10;;;;;;6102128;23;20020;-92
2022/08/04 09:59:26;;;;;;;2.75;0.50;;;23.00;92.70;;;;;;6191401;23;20020;-90
2022/08/04 10:01:56;;;;;;;1.50;0.70;;;23.00;92.40;;;;;;6195169;23;20016;-91
2022/08/04 10:04:28;;;;;;;1.08;0.40;;;22.80;92.80;;;;;;6202886;23;20024;-91
2022/08/04 10:07:43;;;;;;;1.13;0.50;;;22.70;93.10;;;;;;6193727;23;20593;-89
2022/08/04 10:10:52;;;;;;;1.00;0.50;;;22.80;92.30;;;;;;6209416;23;20051;-92
2022/08/04 10:13:28;;;;;;;1.25;0.50;;;22.90;92.70;;;;;;6257177;23;20018;-90
2022/08/04 10:15:58;;;;;;;1.10;0.38;;;23.00;92.40;;;;;;6256160;23;20016;-90
2022/08/04 10:18:44;;;;;;;1.05;0.50;;;23.10;92.40;;;;;;6248446;23;20091;-92
2022/08/04 10:21:25;;;;;;;1.10;0.57;;;23.10;92.50;;;;;;6220969;23;20142;-92
2022/08/04 10:24:11;;;;;;;0.73;0.45;;;23.00;92.00;;;;;;6222599;23;20020;-92
2022/08/04 10:26:46;;;;;;;0.75;0.40;;;23.10;92.00;;;;;;6242026;23;20047;-93
2022/08/04 10:29:16;;;;;;;1.25;0.40;;;23.30;92.40;;;;;;6219344;23;20024;-90
2022/08/04 10:32:15;;;;;;;0.65;0.60;;;23.20;91.40;;;;;;6193619;23;20659;-91
2022/08/04 10:35:03;;;;;;;0.47;0.40;;;23.10;91.40;;;;;;6233601;22;20359;-89
2022/08/04 10:38:00;;;;;;;1.23;0.47;;;23.10;91.60;;;;;;6221780;23;20099;-90
2022/08/04 10:40:49;;;;;;;0.30;0.30;;;23.00;91.50;;;;;;6232369;23;20031;-89
2022/08/04 10:43:34;;;;;;;0.40;0.40;;;23.20;91.50;;;;;;6170119;23;20351;-90
2022/08/04 10:46:06;;;;;;;1.02;0.38;;;23.30;91.00;;;;;;6186997;23;20403;-90
2022/08/04 10:48:57;;;;;;;0.55;0.32;;;23.50;91.00;;;;;;6163598;23;20027;-90
2022/08/04 10:51:52;;;;;;;0.82;0.40;;;23.50;90.60;;;;;;6165124;23;20024;-90
2022/08/04 10:54:35;;;;;;;0.65;0.20;;;23.50;90.60;;;;;;6169991;23;20013;-90
2022/08/04 10:57:14;;;;;;;1.23;0.50;;;23.50;90.20;;;;;;6164690;23;20027;-91
2022/08/04 11:00:04;;;;;;;0.85;0.50;;;23.30;90.70;;;;;;6140962;23;20017;-88
2022/08/04 11:02:59;;;;;;;1.00;0.52;;;23.20;90.70;;;;;;6168863;23;20023;-90
2022/08/04 11:05:49;;;;;;;0.88;0.35;;;23.20;90.50;;;;;;6192477;23;20032;-90
2022/08/04 11:08:34;;;;;;;0.52;0.38;;;23.40;90.90;;;;;;6190164;23;20013;-91
2022/08/04 11:11:32;;;;;;;0.40;0.30;;;23.50;90.50;;;;;;6170513;23;20016;-90
2022/08/04 11:14:23;;;;;;;0.85;0.35;;;23.70;89.60;;;;;;6177414;23;20063;-90
2022/08/04 11:17:05;;;;;;;0.82;0.40;;;23.90;89.40;;;;;;6166980;23;20035;-90
2022/08/04 11:20:14;;;;;;;0.50;0.50;;;24.10;87.80;;;;;;6170033;23;20024;-90
2022/08/04 11:23:14;;;;;;;0.60;0.40;;;24.10;88.30;;;;;;6205810;23;20016;-89
2022/08/04 11:26:00;;;;;;;1.10;0.40;;;24.30;86.90;;;;;;6175456;23;20082;-90
2022/08/04 11:29:05;;;;;;;0.55;0.47;;;24.40;86.90;;;;;;6167898;23;20282;-90
2022/08/04 11:31:35;;;;;;;0.40;0.40;;;24.50;86.00;;;;;;6188452;23;20340;-91
2022/08/04 11:34:16;;;;;;;1.33;0.40;;;24.90;86.60;;;;;;6161792;23;20024;-91
2022/08/04 11:36:51;;;;;;;0.57;0.50;;;25.00;86.30;;;;;;6164178;23;20021;-91
2022/08/04 11:39:34;;;;;;;0.60;0.30;;;25.30;86.10;;;;;;6164497;23;20383;-90
2022/08/04 11:42:27;;;;;;;1.05;0.57;;;25.40;84.00;;;;;;6226262;22;20034;-91
2022/08/04 11:44:58;;;;;;;;;;;25.20;83.70;;;;;;6218969;23;20091;-91
2022/08/04 11:47:29;;;;;;;1.40;0.60;;;25.20;84.40;;;;;;6248463;22;19915;-90
2022/08/04 11:50:19;;;;;;;1.13;0.50;;;25.80;84.40;;;;;;6219019;23;20027;-91
2022/08/04 11:52:47;;;;;;;0.68;0.40;;;26.40;81.90;;;;;;6243263;22;20020;-91
2022/08/04 11:55:21;;;;;;;0.70;0.47;;;26.70;81.10;;;;;;6193036;23;20077;-91
2022/08/04 11:57:48;;;;;;;1.53;0.80;;;26.80;81.40;;;;;;6191797;23;20108;-91
2022/08/04 12:00:20;;;;;;;0.85;0.50;;;26.80;79.90;;;;;;6191795;23;20024;-90
2022/08/04 12:03:01;;;;;;;0.98;0.40;;;26.60;80.20;;;;;;6189884;23;20020;-90
2022/08/04 12:05:31;;;;;;;0.68;0.50;;;26.40;78.30;;;;;;6190237;23;20034;-90
2022/08/04 12:08:05;;;;;;;0.70;0.50;;;26.60;78.80;;;;;;6192958;23;20470;-90
2022/08/04 12:10:59;;;;;;;0.28;0.28;;;27.20;76.80;;;;;;6243662;23;20085;-91
2022/08/04 12:13:50;;;;;;;0.35;0.30;;;26.90;76.30;;;;;;6219578;23;20032;-90
2022/08/04 12:32:37;;;;;;;0.35;0.30;;;28.40;72.20;;;;;;6148632;23;20132;-77
2022/08/04 12:35:22;;;;;;;0.73;0.40;;;28.30;71.90;;;;;;6124487;23;20040;-74
2022/08/04 12:37:55;;;;;;;1.00;0.47;;;28.00;71.90;;;;;;6101176;23;20112;-77
2022/08/04 12:40:24;;;;;;;0.30;0.30;;;28.40;72.70;;;;;;6148834;23;20113;-75
2022/08/04 12:43:16;;;;;;;0.85;0.32;;;28.70;71.40;;;;;;6101327;23;20515;-75
2022/08/04 12:45:54;;;;;;;0.70;0.63;;;28.70;72.30;;;;;;6122130;23;20092;-75
2022/08/04 12:48:21;;;;;;;0.35;0.25;;;28.40;72.00;;;;;;6122419;23;20169;-74
2022/08/04 12:50:52;;;;;;;0.63;0.30;;;28.30;71.70;;;;;;6139872;23;20024;-75
2022/08/04 12:53:20;;;;;;;0.30;0.30;;;28.40;71.10;;;;;;6104238;23;20025;-75
2022/08/04 12:55:58;;;;;;;0.30;0.30;;;28.80;71.30;;;;;;6132295;23;20441;-74
2022/08/04 12:58:29;;;;;;;0.65;0.47;;;29.40;70.20;;;;;;6128509;23;20020;-74
2022/08/04 13:01:28;;;;;;;0.52;0.52;;;29.60;69.70;;;;;;6132708;23;20100;-73
2022/08/04 13:04:24;;;;;;;1.25;0.60;;;29.70;69.40;;;;;;6153499;23;20029;-75
2022/08/04 13:07:09;;;;;;;0.65;0.60;;;30.40;68.30;;;;;;6130018;23;20035;-75
2022/08/04 13:09:36;;;;;;;1.13;0.50;;;30.60;66.30;;;;;;6150991;23;20329;-74
2022/08/04 13:12:28;;;;;;;0.35;0.30;;;31.20;63.90;;;;;;6177908;23;20020;-76
2022/08/04 13:15:06;;;;;;;0.13;0.10;;;31.60;61.90;;;;;;6129264;23;20107;-75
2022/08/04 13:17:58;;;;;;;0.40;0.30;;;31.90;63.00;;;;;;6153831;23;20409;-75
2022/08/04 13:20:28;;;;;;;0.55;0.43;;;30.90;62.20;;;;;;6179561;23;20095;-75
2022/08/04 13:23:05;;;;;;;0.20;0.20;;;30.60;63.40;;;;;;6153688;23;20392;-74
2022/08/04 13:25:39;;;;;;;0.20;0.20;;;30.50;62.90;;;;;;6153246;23;20020;-75
2022/08/04 13:28:26;;;;;;;0.35;0.30;;;30.20;63.60;;;;;;6150537;23;20032;-76
2022/08/04 13:30:58;;;;;;;0.35;0.32;;;30.30;63.50;;;;;;6161558;23;20027;-75
2022/08/04 13:33:30;;;;;;;0.60;0.32;;;30.50;63.50;;;;;;6150818;23;20409;-76
2022/08/04 13:35:58;;;;;;;1.17;0.50;;;30.60;63.80;;;;;;6176180;23;20091;-75
2022/08/04 13:38:26;;;;;;;0.52;0.38;;;31.30;63.80;;;;;;6176022;23;20091;-74
2022/08/04 13:40:54;;;;;;;1.92;0.30;;;31.70;62.50;;;;;;6176265;23;20024;-74
2022/08/04 13:43:24;;;;;;;0.50;0.30;;;31.40;63.00;;;;;;6175218;23;20074;-75
2022/08/04 13:46:17;;;;;;;1.08;0.60;;;30.40;64.70;;;;;;6140804;23;20347;-75
2022/08/04 13:48:55;;;;;;;0.63;0.40;;;29.60;65.70;;;;;;6155254;23;20023;-74
2022/08/04 13:51:49;;;;;;;0.95;0.40;;;29.10;66.70;;;;;;6180275;23;20357;-75
2022/08/04 13:54:25;;;;;;;0.40;0.30;;;29.00;66.90;;;;;;6155173;23;20028;-75
2022/08/04 13:56:58;;;;;;;1.08;0.50;;;29.20;67.30;;;;;;6177487;23;20185;-74
2022/08/04 13:59:26;;;;;;;0.52;0.50;;;29.90;66.70;;;;;;6175525;23;20029;-75
2022/08/04 14:02:06;;;;;;;0.60;0.30;;;30.40;66.10;;;;;;6175802;23;20046;-76
2022/08/04 14:04:37;;;;;;;0.77;0.57;;;29.60;66.80;;;;;;6175920;23;20036;-75
2022/08/04 14:07:14;;;;;;;0.50;0.50;;;29.30;67.60;;;;;;6150968;23;20451;-73
2022/08/04 14:09:47;;;;;;;0.65;0.40;;;29.60;67.00;;;;;;6154026;23;20240;-74
2022/08/04 14:12:38;;;;;;;0.28;0.28;;;29.90;66.10;;;;;;6177688;23;20529;-74
2022/08/04 14:15:41;;;;;;;0.60;0.50;;;30.80;64.80;;;;;;6174751;23;20474;-76
2022/08/04 14:18:30;;;;;;;0.80;0.50;;;31.40;64.20;;;;;;6179575;23;20055;-76
2022/08/04 14:21:04;;;;;;;0.93;0.60;;;30.90;63.20;;;;;;6176676;23;20021;-76
2022/08/04 14:23:46;;;;;;;1.55;0.70;;;30.40;63.80;;;;;;6175436;23;20552;-73
2022/08/04 14:26:13;;;;;;;;;;;30.00;64.30;;;;;;6202868;23;20103;-77
2022/08/04 14:28:40;;;;;;;0.30;0.30;;;29.50;65.00;;;;;;6174979;23;19951;-75
2022/08/04 14:31:27;;;;;;;0.90;0.50;;;29.50;64.80;;;;;;6158844;23;20028;-78
2022/08/04 14:33:56;;;;;;;1.05;0.60;;;29.50;65.30;;;;;;6202062;23;20094;-76
2022/08/04 14:36:43;;;;;;;0.45;0.28;;;29.30;64.60;;;;;;6177604;23;20028;-77